GUA weather

La Aurora Airport
Guatemala City, Guatemala, Guatemala

Public forecast

Using degrees Celsius for public forecast. Weather courtesy of forecast.io.

METAR (pilot weather report)

Retrieved 2019/03/22 05:00 UTC (48 minutes ago):

MGGT 220500Z 36018KT 9999 BKN014 15/13 Q1028 A3036

TAF (pilot weather forecast)

Forecast is more than 12 hours old.

Retrieved 2019/03/21 00:42 UTC (1 day ago):

TAF TAF MGGT 212300Z 2200/2224 36020KT 9999 SCT016 TX26/2220Z TN15/2212Z BECMG 2208/2210 36016KT BKN014 BECMG 2215/2217 36014KT SCT018 TEMPO 2220/2224 SCT020